Redondo, Valles Caldera, New Mexico Weather observations

Data are for 10 minute period ending at time listed.
 Day   Time   Solar   Ave.   Ave.  Ave.  Vector  Max.   Baro.   Total    
  of    of     Rad.   Air    Rel.  Wind   Wind   Wind  Press.  Precip.   
Year   Day            Temp.  Hum.  Speed  Dir.   Gust                    
2014   (MST)  Kw/m2    F      %     mph   deg.    mph    mb.     in.     
-------------------------------------------------------------------------
 273   22:30   0.00   37.7    66    5.8   325    11.9   687.5    0.00 
 273   22:40   0.00   37.5    66    5.9   322    11.9   687.4    0.00 
 273   22:50   0.00   37.5    66    5.4   318    13.7   687.4    0.00 
 273   23:00   0.00   36.9    66    5.3   322    10.2   687.2    0.00 
 273   23:10   0.00   37.0    66    5.4   321    11.9   687.2    0.00 
 273   23:20   0.00   36.7    67    4.6   326    14.9   687.2    0.00 
 273   23:30   0.00   36.7    68    5.1   318     9.6   687.1    0.00 
 273   23:40   0.00   36.7    68    5.3   322    10.8   687.1    0.00 
 273   23:50   0.00   37.0    67    5.7   323     9.6   687.1    0.00 
 274    0:00   0.00   36.9    68    5.1   324    13.7   687.1    0.00 
 274    0:10   0.00   37.0    68    5.7   319    11.9   687.1    0.00 
 274    0:20   0.00   37.1    68    5.5   313    12.5   687.0    0.00 
 274    0:30   0.00   36.7    69    4.8   314     9.0   687.1    0.00 
 274    0:40   0.00   36.8    68    4.8   313     9.0   687.1    0.00 
 274    0:50   0.00   36.5    69    4.2   310     9.0   687.1    0.00 
 274    1:00   0.00   36.3    70    4.3   316     9.6   687.1    0.00 
 274    1:10   0.00   36.2    70    4.6   321    11.9   687.1    0.00 
 274    1:20   0.00   36.3    69    4.1   315     8.4   687.1    0.00 
 274    1:30   0.00   36.1    69    4.1   317     9.0   687.1    0.00 
 274    1:40   0.00   35.8    71    3.9   327     9.0   687.1    0.00 
 274    1:50   0.00   35.6    72    3.9   322     7.2   687.0    0.00 
 274    2:00   0.00   35.6    72    4.4   317    11.3   687.0    0.00 
 274    2:10   0.00   35.7    72    3.9   315     7.8   686.8    0.00 
 274    2:20   0.00   35.8    71    4.1   312     9.0   686.8    0.00 
 274    2:30   0.00   36.0    71    4.7   317     9.6   686.8    0.00 
 274    2:40   0.00   36.0    71    4.5   320    10.2   686.8    0.00 
 274    2:50   0.00   35.9    72    4.2   318     9.0   686.8    0.00 
 274    3:00   0.00   35.7    73    3.8   320     7.2   686.9    0.00 
 274    3:10   0.00   35.5    74    4.1   317     7.8   686.7    0.00 
 274    3:20   0.00   35.5    74    4.8   324     8.4   686.7    0.00 
 274    3:30   0.00   35.3    74    4.1   326     7.2   686.8    0.00 
 274    3:40   0.00   35.2    75    3.8   324     7.2   686.8    0.00 
 274    3:50   0.00   35.2    75    3.6   321     7.2   686.8    0.00 
 274    4:00   0.00   35.1    75    3.4   316     7.2   686.8    0.00 
 274    4:10   0.00   35.4    73    3.9   315     7.8   686.8    0.00 
 274    4:20   0.00   35.6    71    3.5   308     7.8   686.6    0.00 
 274    4:30   0.00   35.6    69    3.0   317     6.0   686.7    0.00 
 274    4:40   0.00   35.4    70    3.3   321     6.6   686.8    0.00 
 274    4:50   0.00   35.3    70    3.5   322     6.6   686.8    0.00 
 274    5:00   0.00   35.5    68    3.9   326     7.2   686.8    0.00 
 274    5:10   0.00   35.4    69    3.7   330     7.2   686.8    0.00 
 274    5:20   0.00   35.3    69    3.5   330     6.6   686.9    0.00 
 274    5:30   0.00   35.6    69    3.9   328     7.8   686.9    0.00 
 274    5:40   0.00   35.6    69    3.9   333     7.2   687.0    0.00 
 274    5:50   0.00   35.6    69    3.9   332     7.2   686.9    0.00 
 274    6:00   0.00   35.3    70    3.5   330     6.0   686.9    0.00 
 274    6:10   0.01   35.2    72    3.4   330     7.2   687.0    0.00 
 274    6:20   0.01   35.1    73    3.3   326     5.4   687.1    0.00 
 274    6:30   0.01   35.1    74    3.0   332     6.0   687.1    0.00 
 274    6:40   0.01   35.0    74    2.9   320     6.0   687.1    0.00 
 274    6:50   0.03   35.1    75    2.7   329     4.8   687.2    0.00 
 274    7:00   0.11   36.2    73    2.9   314     5.4   687.3    0.00 
 274    7:10   0.11   38.4    67    3.0   295     6.0   687.4    0.00 
 274    7:20   0.22   39.7    64    3.3   303     7.2   687.4    0.00 
 274    7:30   0.18   41.7    60    3.4   314     6.0   687.4    0.00 
 274    7:40   0.29   41.6    60    3.5   299     7.2   687.4    0.00 
 274    7:50   0.33   43.0    57    3.5   303     7.8   687.5    0.00 
 274    8:00   0.36   43.4    56    4.1   302     8.4   687.5    0.00 
 274    8:10   0.39   43.5    55    3.9   284     8.4   687.5    0.00 
 274    8:20   0.43   43.6    54    4.4   289     9.0   687.6    0.00 
 274    8:30   0.46   44.5    54    3.2   307     9.6   687.6    0.00 
 274    8:40   0.49   45.3    53    4.0   270     9.6   687.6    0.00 
 274    8:50   0.52   44.2    56    5.0   279     9.6   687.6    0.00 
 274    9:00   0.55   44.2    58    4.7   282    10.8   687.7    0.00 
 274    9:10   0.58   44.1    59    5.3   280    11.3   687.7    0.00 
 274    9:20   0.63   45.1    59    4.4   291    11.3   687.7    0.00 
 274    9:30   0.73   46.5    57    4.8   285    11.3   687.7    0.00 
 274    9:40   0.39   44.6    59    5.0   272    12.5   687.7    0.00 
 274    9:50   0.37   43.6    62    4.3   293    10.8   687.7    0.00 
 274   10:00   0.49   43.8    62    4.9   290     9.6   687.7    0.00 
 274   10:10   0.34   43.2    64    4.9   293     9.6   687.7    0.00 
 274   10:20   0.27   43.3    64    5.0   306    10.2   687.7    0.00 
 274   10:30   0.35   43.3    64    5.2   315    13.1   687.7    0.00 
 274   10:40   0.34   43.5    63    4.8   302     9.6   687.6    0.00 
 274   10:50   0.49   44.0    62    4.1   278     9.0   687.6    0.00 
 274   11:00   0.85   47.2    56    5.5   297    10.8   687.5    0.00 
 274   11:10   0.40   46.2    57    5.1   303    12.5   687.5    0.00 
 274   11:20   0.49   46.3    56    5.7   302    11.9   687.4    0.00 
 274   11:30   0.23   44.7    56    5.8   322    11.9   687.4    0.00 
 274   11:40   0.46   45.7    55    6.2   325    11.3   687.4    0.00 
 274   11:50   0.88   47.0    54    5.7   306    13.7   687.4    0.00 
 274   12:00   0.62   47.8    49    6.7   312    12.5   687.3    0.00 
 274   12:10   0.50   46.2    50    6.8   318    13.7   687.2    0.00 
 274   12:20   0.85   48.4    48    6.8   313    16.1   687.1    0.00 
 274   12:30   0.86   49.9    45    6.7   312    13.7   687.0    0.00 
 274   12:40   0.52   49.7    44    6.2   315    12.5   686.8    0.00 
 274   12:50   0.66   48.6    48    5.3   305    10.8   686.8    0.00 
 274   13:00   0.64   49.6    47    5.2   273    10.8   686.7    0.00 
 274   13:10   0.70   49.2    47    6.2   290    16.7   686.5    0.00 
 274   13:20   0.57   50.8    44    6.9   302    16.1   686.5    0.00 
 274   13:30   0.35   47.5    48    5.8   291    16.1   686.5    0.00 
 274   13:40   0.22   46.6    51    6.6   301    13.1   686.5    0.00 
 274   13:50   0.72   48.1    48    7.4   316    16.1   686.5    0.00 
 274   14:00   0.75   51.2    44    6.7   310    15.5   686.5    0.00 
 274   14:10   0.24   50.0    44    5.4   306    11.3   686.5    0.00 
 274   14:20   0.27   46.7    50    5.3   320    16.1   686.5    0.00 
 274   14:30   0.16   47.2    46    6.5   313    13.1   686.6    0.00 
 274   14:40   0.12   46.0    49    6.6   326    11.9   686.6    0.00 
 274   14:50   0.17   45.8    46    7.1   315    13.7   686.6    0.00 
 274   15:00   0.14   45.5    47    7.2   318    17.3   686.7    0.00 
 274   15:10   0.14   45.2    49    6.3   316    14.3   686.7    0.00 
 274   15:20   0.16   45.2    48    6.2   308    17.3   686.7    0.00 
 274   15:30   0.52   47.9    44    7.8   306    15.5   686.7    0.00 
 274   15:40   0.40   49.9    41    7.2   311    12.5   686.7    0.00 
 274   15:50   0.15   46.8    45    6.6   323    15.5   686.8    0.00 
 274   16:00   0.40   47.8    46    7.0   317    14.9   686.8    0.00 
 274   16:10   0.36   50.2    42    6.5   307    14.3   686.8    0.00 
 274   16:20   0.22   47.2    46    6.7   312    15.5   686.8    0.00 
 274   16:30   0.26   49.1    43    6.5   324    11.3   686.9    0.00 
 274   16:40   0.09   45.9    48    5.4   315    17.3   686.9    0.00 
 274   16:50   0.09   44.7    48    5.7   322    11.9   687.0    0.00 
 274   17:00   0.17   45.5    46    5.0   319    10.2   687.2    0.00 
 274   17:10   0.11   47.0    44    5.4   316    10.2   687.2    0.00 
 274   17:20   0.05   44.5    49    4.6   312     8.4   687.2    0.00 
 274   17:30   0.02   43.2    51    4.0   308     8.4   687.3    0.00 
 274   17:40   0.01   42.3    53    3.2   310     7.8   687.3    0.00 
 274   17:50   0.01   41.8    54    3.4   319     5.4   687.4    0.00 
 274   18:00   0.00   41.1    57    2.9   325     6.6   687.4    0.00 
 274   18:10   0.00   40.3    60    2.5   318     4.8   687.4    0.00 
 274   18:20   0.00   40.1    61    2.4   337     5.4   687.4    0.00 
 274   18:30   0.00   39.7    62    2.6   325     7.2   687.5    0.00 
 274   18:40   0.00   39.6    63    2.6   330     6.0   687.6    0.00 
 274   18:50   0.00   39.6    64    2.9   335     6.0   687.7    0.00 
 274   19:00   0.00   39.4    65    2.8   327     4.8   687.8    0.00 
 274   19:10   0.00   39.2    66    3.6   325     8.4   687.8    0.00 
 274   19:20   0.00   38.9    66    3.7   320     6.6   687.8    0.00 
 274   19:30   0.00   38.2    68    2.7   321     4.8   688.0    0.00 
 274   19:40   0.00   37.6    69    2.9   309     5.4   688.0    0.00 
 274   19:50   0.00   37.0    71    2.8   310     4.2   688.0    0.00 
 274   20:00   0.00   36.5    72    2.5   306     6.6   688.0    0.00 
 274   20:10   0.00   36.6    73    2.7   315     5.4   688.0    0.00 
 274   20:20   0.00   36.7    74    3.1   318     5.4   688.0    0.00 
 274   20:30   0.00   36.8    74    3.7   319     7.8   688.0    0.00 
 274   20:40   0.00   36.6    75    3.5   327     7.2   688.0    0.00 
 274   20:50   0.00   36.4    76    3.5   322     6.6   688.0    0.00 
 274   21:00   0.00   37.2    75    6.9   321    13.7   688.3    0.00 
 274   21:10   0.00   36.2    81    5.0   329    11.3   688.3    0.00 
 274   21:20   0.00   34.4    86    4.3   329     9.0   688.0    0.00 
 274   21:30   0.00   34.2    84    3.9   332     7.8   688.0    0.00 
 274   21:40   0.00   34.3    82    5.0   320    12.5   688.0    0.00 
 274   21:50   0.00   35.0    80    6.0   326    13.7   687.9    0.00 
 274   22:00   0.00   35.3    80    5.8   326    11.9   687.9    0.00 
 274   22:10   0.00   35.0    81    4.7   323     8.4   687.9    0.00 
 274   22:20   0.00   34.6    82    4.9   324     8.4   687.9    0.00 

Return to Redondo, Valles Caldera graphs page.


Western Regional Climate Center,wrcc@dri.edu